Time;durP1;ratioP1;P1;durP2;ratioP2;P2;SDS_P1;SDS_P2;PMS_P1;PMS_P2;Temp;Humidity;BMP_temperature;BMP_pressure;BME280_temperature;BME280_humidity;BME280_pressure;Samples;Min_cycle;Max_cycle;Signal;HPM_P1;HPM_P2
2022/12/09 00:00:14;;;;;;;14.97;9.40;;;;;;;-1.86;100.00;97195.97;5094313;28;20213;-88
2022/12/09 00:02:40;;;;;;;12.87;8.93;;;;;;;-1.89;100.00;97190.06;5094605;28;20231;-88
2022/12/09 00:05:08;;;;;;;16.67;9.17;;;;;;;-1.90;100.00;97193.56;5094474;28;20556;-88
2022/12/09 00:07:35;;;;;;;13.60;9.47;;;;;;;-1.95;100.00;97188.56;5094521;28;20239;-87
2022/12/09 00:10:01;;;;;;;13.47;9.37;;;;;;;-1.95;100.00;97180.78;5094891;28;20256;-88
2022/12/09 00:12:29;;;;;;;12.00;8.40;;;;;;;-1.97;100.00;97177.38;5095053;28;20214;-88
2022/12/09 00:14:55;;;;;;;14.40;9.13;;;;;;;-1.98;100.00;97169.66;5094540;28;20695;-88
2022/12/09 00:17:22;;;;;;;13.03;9.30;;;;;;;-2.00;100.00;97171.47;5095188;28;20229;-86
2022/12/09 00:19:48;;;;;;;15.13;9.77;;;;;;;-1.96;100.00;97170.47;5095827;28;20204;-88
2022/12/09 00:22:15;;;;;;;17.10;10.90;;;;;;;-2.00;100.00;97171.47;5096002;28;20697;-87
2022/12/09 00:24:41;;;;;;;15.07;9.77;;;;;;;-2.01;100.00;97162.88;5096158;28;20224;-88
2022/12/09 00:27:08;;;;;;;14.90;10.33;;;;;;;-2.00;100.00;97163.69;5094346;28;20239;-87
2022/12/09 00:29:36;;;;;;;12.80;9.00;;;;;;;-2.00;100.00;97167.16;5094215;28;20204;-87
2022/12/09 00:32:03;;;;;;;13.03;9.17;;;;;;;-2.00;100.00;97161.13;5094272;28;20212;-89
2022/12/09 00:34:29;;;;;;;12.80;8.97;;;;;;;-1.98;100.00;97165.34;5094254;28;20205;-88
2022/12/09 00:36:56;;;;;;;13.43;8.37;;;;;;;-2.04;100.00;97169.88;5094427;28;20208;-87
2022/12/09 00:39:22;;;;;;;12.37;8.83;;;;;;;-2.07;100.00;97157.91;5094873;28;20735;-87
2022/12/09 00:41:50;;;;;;;13.03;8.77;;;;;;;-2.10;100.00;97159.75;5094942;28;20208;-87
2022/12/09 00:44:16;;;;;;;13.17;8.93;;;;;;;-2.10;100.00;97159.75;5094553;28;20233;-87
2022/12/09 00:46:44;;;;;;;12.33;9.07;;;;;;;-2.08;100.00;97153.63;5094869;28;20672;-89
2022/12/09 00:49:11;;;;;;;13.03;9.33;;;;;;;-2.05;100.00;97150.06;5094406;28;20222;-88
2022/12/09 00:51:37;;;;;;;13.40;8.83;;;;;;;-2.12;100.00;97161.53;5095901;28;20209;-88
2022/12/09 00:54:04;;;;;;;12.17;8.60;;;;;;;-2.19;100.00;97154.91;5094595;28;20205;-89
2022/12/09 00:56:31;;;;;;;14.43;9.20;;;;;;;-2.28;100.00;97161.22;5095791;28;20210;-89
2022/12/09 00:58:58;;;;;;;13.77;9.27;;;;;;;-2.31;100.00;97157.91;5094204;28;20328;-89
2022/12/09 01:01:25;;;;;;;14.57;9.97;;;;;;;-2.26;100.00;97161.19;5095135;28;20213;-89
2022/12/09 01:03:53;;;;;;;12.53;8.47;;;;;;;-2.23;100.00;97163.66;5096433;28;20234;-88
2022/12/09 01:06:22;;;;;;;12.23;8.03;;;;;;;-2.34;100.00;97160.63;5095833;28;20204;-88
2022/12/09 01:08:49;;;;;;;12.57;7.70;;;;;;;-2.40;100.00;97160.81;5094429;28;20233;-88
2022/12/09 01:11:18;;;;;;;10.40;7.83;;;;;;;-2.47;100.00;97159.31;5103404;28;20214;-88
2022/12/09 01:13:44;;;;;;;12.20;7.67;;;;;;;-2.45;100.00;97160.13;5097685;28;20215;-89
2022/12/09 01:16:16;;;;;;;12.37;7.87;;;;;;;-2.46;100.00;97166.19;5093370;28;20224;-88
2022/12/09 01:18:43;;;;;;;12.60;8.20;;;;;;;-2.51;100.00;97168.09;5093009;28;20238;-88
2022/12/09 01:21:11;;;;;;;12.90;9.00;;;;;;;-2.45;100.00;97167.88;5093050;28;20205;-89
2022/12/09 01:23:37;;;;;;;14.50;9.53;;;;;;;-2.49;100.00;97171.47;5092970;28;20694;-90
2022/12/09 01:26:04;;;;;;;13.00;8.73;;;;;;;-2.51;100.00;97170.69;5093043;28;20209;-88
2022/12/09 01:28:31;;;;;;;13.73;9.13;;;;;;;-2.53;100.00;97170.72;5092688;28;20232;-89
2022/12/09 01:30:58;;;;;;;12.87;9.03;;;;;;;-2.51;100.00;97168.91;5092690;28;20210;-89
2022/12/09 01:33:24;;;;;;;13.23;9.07;;;;;;;-2.59;100.00;97167.47;5092990;28;20471;-90
2022/12/09 01:35:51;;;;;;;13.80;10.37;;;;;;;-2.59;100.00;97160.59;5092978;28;20245;-89
2022/12/09 01:38:19;;;;;;;12.90;8.70;;;;;;;-2.58;100.00;97156.28;5092616;28;20241;-90
2022/12/09 01:40:46;;;;;;;11.33;8.43;;;;;;;-2.60;100.00;97163.22;5092600;28;20210;-90
2022/12/09 01:43:17;;;;;;;12.03;8.70;;;;;;;-2.65;100.00;97162.50;5092527;28;20260;-90
2022/12/09 01:45:48;;;;;;;13.53;8.73;;;;;;;-2.69;100.00;97150.59;5092818;28;20691;-90
2022/12/09 01:48:18;;;;;;;13.30;9.70;;;;;;;-2.63;100.00;97155.56;5092665;28;20221;-89
2022/12/09 01:50:50;;;;;;;14.67;9.20;;;;;;;-2.58;100.00;97151.09;5092440;28;20217;-90
2022/12/09 01:53:22;;;;;;;12.67;8.80;;;;;;;-2.61;100.00;97146.88;5092623;28;20700;-88
2022/12/09 01:55:50;;;;;;;12.57;8.83;;;;;;;-2.64;100.00;97146.94;5092590;28;20210;-86
2022/12/09 01:58:17;;;;;;;13.50;8.13;;;;;;;-2.69;100.00;97137.66;5092767;28;20240;-88
2022/12/09 02:00:44;;;;;;;13.00;8.87;;;;;;;-2.71;100.00;97139.44;5091352;28;20202;-87
2022/12/09 02:03:11;;;;;;;11.20;7.90;;;;;;;-2.77;100.00;97129.31;5092578;28;20205;-87
2022/12/09 02:05:37;;;;;;;12.90;9.00;;;;;;;-2.73;100.00;97130.91;5092599;28;20213;-91
2022/12/09 02:08:06;;;;;;;12.10;8.43;;;;;;;-2.72;100.00;97127.41;5092378;28;20247;-90
2022/12/09 02:10:38;;;;;;;15.23;8.53;;;;;;;-2.74;100.00;97121.47;5089191;28;20209;-90
2022/12/09 02:13:13;;;;;;;11.10;8.67;;;;;;;-2.68;100.00;97123.84;5091585;28;20585;-90
2022/12/09 02:15:46;;;;;;;14.53;8.77;;;;;;;-2.68;100.00;97113.50;5091274;28;20597;-90
2022/12/09 02:18:18;;;;;;;13.27;8.77;;;;;;;-2.70;100.00;97117.88;5090299;28;20241;-88
2022/12/09 02:20:52;;;;;;;15.27;9.30;;;;;;;-2.72;100.00;97102.41;5087923;28;20204;-88
2022/12/09 02:23:24;;;;;;;12.63;9.47;;;;;;;-2.71;100.00;97093.75;5091466;28;20602;-88
2022/12/09 02:25:57;;;;;;;13.97;8.20;;;;;;;-2.75;100.00;97091.34;5091309;28;20212;-90
2022/12/09 02:28:53;;;;;;;14.30;8.50;;;;;;;-2.78;100.00;97087.09;5091036;28;20234;-90
2022/12/09 02:31:34;;;;;;;12.53;7.57;;;;;;;-2.82;100.00;97080.34;5091041;28;20208;-90
2022/12/09 02:34:10;;;;;;;12.47;9.50;;;;;;;-2.84;100.00;97096.78;5091367;28;20199;-89
2022/12/09 02:36:46;;;;;;;11.93;8.60;;;;;;;-2.81;100.00;97092.38;5091119;28;20213;-89
2022/12/09 02:39:13;;;;;;;12.23;8.53;;;;;;;-2.85;100.00;97095.13;5090836;28;20703;-88
2022/12/09 02:41:43;;;;;;;14.40;9.57;;;;;;;-2.89;100.00;97096.13;5091430;28;20212;-88
2022/12/09 02:44:13;;;;;;;11.80;8.67;;;;;;;-2.86;100.00;97098.59;5091218;28;20213;-89
2022/12/09 02:46:42;;;;;;;17.07;9.23;;;;;;;-2.84;100.00;97096.78;5091775;28;20224;-88
2022/12/09 02:49:11;;;;;;;12.13;8.80;;;;;;;-2.88;100.00;97087.47;5090652;28;20694;-89
2022/12/09 02:51:40;;;;;;;12.90;9.67;;;;;;;-2.89;100.00;97085.78;5091483;28;20695;-89
2022/12/09 02:54:11;;;;;;;15.30;9.20;;;;;;;-2.94;100.00;97085.91;5091106;28;20357;-88
2022/12/09 02:56:40;;;;;;;16.67;9.63;;;;;;;-2.97;100.00;97080.00;5091186;28;20230;-89
2022/12/09 02:59:08;;;;;;;15.80;9.43;;;;;;;-2.98;100.00;97084.34;5089716;28;20233;-88
2022/12/09 03:01:39;;;;;;;14.73;9.00;;;;;;;-2.99;100.00;97081.81;5091140;28;20629;-88
2022/12/09 03:04:07;;;;;;;17.03;9.80;;;;;;;-3.01;100.00;97068.94;5091395;28;20207;-87
2022/12/09 03:06:41;;;;;;;11.60;8.33;;;;;;;-2.97;100.00;97064.50;5091265;28;20233;-87
2022/12/09 03:09:10;;;;;;;13.57;8.27;;;;;;;-3.00;100.00;97065.44;5090783;28;20442;-87
2022/12/09 03:11:37;;;;;;;14.57;9.77;;;;;;;-2.96;100.00;97061.88;5091165;28;20212;-87
2022/12/09 03:14:08;;;;;;;14.40;8.97;;;;;;;-2.98;100.00;97052.47;5091137;28;20672;-87
2022/12/09 03:16:37;;;;;;;14.57;9.03;;;;;;;-3.04;100.00;97065.59;5091189;28;20209;-87
2022/12/09 03:19:08;;;;;;;14.43;8.83;;;;;;;-3.06;100.00;97054.47;5090568;28;20247;-86
2022/12/09 03:21:40;;;;;;;14.87;8.93;;;;;;;-3.02;100.00;97045.72;5093037;28;20241;-87
2022/12/09 03:24:10;;;;;;;16.50;9.20;;;;;;;-3.07;100.00;97045.06;5095301;28;20210;-88
2022/12/09 03:26:38;;;;;;;9.90;7.60;;;;;;;-3.15;100.00;97045.28;5095472;28;20210;-88
2022/12/09 03:29:08;;;;;;;11.67;8.03;;;;;;;-3.19;100.00;97045.47;5095252;28;20604;-87
2022/12/09 03:31:37;;;;;;;10.97;8.13;;;;;;;-3.26;100.00;97047.38;5097249;28;20212;-87
2022/12/09 03:34:07;;;;;;;11.07;8.00;;;;;;;-3.32;100.00;97046.72;5095484;28;20585;-87
2022/12/09 03:36:41;;;;;;;12.07;8.20;;;;;;;-3.38;100.00;97052.09;5095517;28;20209;-87
2022/12/09 03:39:11;;;;;;;16.17;10.07;;;;;;;-3.29;100.00;97051.81;5094810;28;20235;-87
2022/12/09 03:41:41;;;;;;;12.93;8.20;;;;;;;-3.22;100.00;97058.47;5095211;28;20222;-87
2022/12/09 03:44:12;;;;;;;13.23;8.57;;;;;;;-3.26;100.00;97056.84;5095004;28;20212;-87
2022/12/09 03:46:39;;;;;;;12.90;7.87;;;;;;;-3.28;100.00;97048.31;5095130;28;20207;-87
2022/12/09 03:49:06;;;;;;;12.40;7.83;;;;;;;-3.28;100.00;97038.84;5094542;28;20234;-87
2022/12/09 03:51:37;;;;;;;11.87;8.27;;;;;;;-3.30;100.00;97034.63;5095323;28;20680;-87
2022/12/09 03:54:12;;;;;;;13.83;8.27;;;;;;;-3.36;100.00;97045.16;5094951;28;20209;-87
2022/12/09 03:56:42;;;;;;;12.60;8.07;;;;;;;-3.40;100.00;97033.22;5094967;28;20679;-87
2022/12/09 03:59:12;;;;;;;12.97;8.67;;;;;;;-3.37;100.00;97033.13;5094790;28;20614;-87
2022/12/09 04:01:40;;;;;;;12.70;8.10;;;;;;;-3.42;100.00;97032.44;5094878;28;20208;-88
2022/12/09 04:04:08;;;;;;;14.47;9.30;;;;;;;-3.39;100.00;97034.91;5094655;28;20226;-87
2022/12/09 04:06:34;;;;;;;14.07;9.83;;;;;;;-3.30;100.00;97039.78;5094690;28;20204;-87
2022/12/09 04:09:01;;;;;;;15.67;10.73;;;;;;;-3.28;100.00;97033.69;5094088;28;20231;-89
2022/12/09 04:11:30;;;;;;;16.33;10.10;;;;;;;-3.25;100.00;97043.06;5095039;28;20219;-87
2022/12/09 04:14:01;;;;;;;13.97;9.17;;;;;;;-3.24;100.00;97037.00;5097142;28;20567;-87
2022/12/09 04:16:29;;;;;;;12.07;8.37;;;;;;;-3.26;100.00;97041.34;5099088;28;20209;-87
2022/12/09 04:18:58;;;;;;;11.53;8.23;;;;;;;-3.24;100.00;97037.00;5104158;28;20241;-89
2022/12/09 04:21:25;;;;;;;13.87;9.53;;;;;;;-3.20;100.00;97048.91;5110397;28;20197;-89
2022/12/09 04:23:52;;;;;;;12.47;8.60;;;;;;;-3.17;100.00;97030.72;5108613;28;20298;-89
2022/12/09 04:26:23;;;;;;;13.10;9.10;;;;;;;-3.18;100.00;97034.22;5095178;28;20212;-89
2022/12/09 04:28:51;;;;;;;13.57;8.10;;;;;;;-3.20;100.00;97025.66;5094415;28;20253;-89
2022/12/09 04:31:19;;;;;;;10.90;8.10;;;;;;;-3.22;100.00;97017.97;5094433;28;20232;-88
2022/12/09 04:33:46;;;;;;;11.50;8.10;;;;;;;-3.20;100.00;97010.16;5093427;28;20206;-89
2022/12/09 04:36:14;;;;;;;12.43;7.80;;;;;;;-3.22;100.00;97011.94;5094619;28;20207;-87
2022/12/09 04:38:41;;;;;;;12.50;8.20;;;;;;;-3.27;100.00;96999.19;5094026;28;20745;-89
2022/12/09 04:41:08;;;;;;;13.47;9.57;;;;;;;-3.21;100.00;96992.97;5094203;28;20208;-89
2022/12/09 04:43:35;;;;;;;14.40;8.30;;;;;;;-3.23;100.00;96990.47;5094295;28;20262;-89
2022/12/09 04:46:06;;;;;;;10.90;8.13;;;;;;;-3.23;100.00;96985.28;5094107;28;20580;-87
2022/12/09 04:48:33;;;;;;;14.37;9.10;;;;;;;-3.22;100.00;96980.94;5094036;28;20234;-87
2022/12/09 04:51:00;;;;;;;11.67;8.00;;;;;;;-3.24;100.00;96982.75;5093620;28;20209;-88
2022/12/09 04:53:27;;;;;;;12.77;8.17;;;;;;;-3.28;100.00;96976.00;5093810;28;20219;-89
2022/12/09 04:55:59;;;;;;;12.63;8.73;;;;;;;-3.27;100.00;96977.69;5093993;28;20213;-89
2022/12/09 04:58:25;;;;;;;13.70;8.50;;;;;;;-3.29;100.00;96975.16;5096837;28;20232;-89
2022/12/09 05:00:52;;;;;;;11.40;8.13;;;;;;;-3.30;100.00;96967.47;5100697;28;20232;-87
2022/12/09 05:03:19;;;;;;;13.87;8.63;;;;;;;-3.28;100.00;96957.91;5093435;28;20687;-87
2022/12/09 05:05:46;;;;;;;12.47;8.27;;;;;;;-3.24;100.00;96956.91;5093803;28;20216;-87
2022/12/09 05:08:12;;;;;;;12.57;8.67;;;;;;;-3.18;100.00;96952.38;5096400;28;20597;-86
2022/12/09 05:10:39;;;;;;;14.33;9.73;;;;;;;-3.10;100.00;96960.72;5095970;28;20224;-86
2022/12/09 05:13:05;;;;;;;14.70;9.73;;;;;;;-3.10;100.00;96955.56;5097091;28;20205;-86
2022/12/09 05:15:32;;;;;;;12.77;8.83;;;;;;;-3.13;100.00;96957.41;5099506;28;20218;-87
2022/12/09 05:18:01;;;;;;;14.37;8.93;;;;;;;-3.15;100.00;96961.75;5102516;28;20240;-88
2022/12/09 05:20:28;;;;;;;15.03;9.03;;;;;;;-3.15;100.00;96957.44;5115677;28;20213;-89
2022/12/09 05:22:55;;;;;;;13.20;8.97;;;;;;;-3.18;100.00;96956.72;5117540;28;20209;-87
2022/12/09 05:25:22;;;;;;;14.70;9.60;;;;;;;-3.24;100.00;96954.34;5113914;28;20210;-87
2022/12/09 05:27:49;;;;;;;14.03;8.80;;;;;;;-3.23;100.00;96951.72;5094674;28;20226;-88
2022/12/09 05:30:16;;;;;;;13.17;9.07;;;;;;;-3.20;100.00;96948.16;5110240;28;20197;-88
2022/12/09 05:32:42;;;;;;;15.27;9.47;;;;;;;-3.24;100.00;96951.75;5118698;28;20377;-88
2022/12/09 05:35:09;;;;;;;13.27;8.37;;;;;;;-3.21;100.00;96951.63;5118634;28;20204;-88
2022/12/09 05:37:37;;;;;;;12.23;8.07;;;;;;;-3.23;100.00;96953.44;5118405;28;20211;-88
2022/12/09 05:40:04;;;;;;;14.70;10.33;;;;;;;-3.18;100.00;96954.13;5118129;28;20220;-88
2022/12/09 05:42:30;;;;;;;13.77;10.17;;;;;;;-3.12;100.00;96952.16;5118529;28;20187;-88
2022/12/09 05:44:57;;;;;;;15.57;9.83;;;;;;;-3.10;100.00;96944.38;5116951;28;20200;-88
2022/12/09 05:47:23;;;;;;;13.90;10.63;;;;;;;-3.04;100.00;96938.97;5118353;28;20214;-88
2022/12/09 05:49:50;;;;;;;14.67;9.63;;;;;;;-3.04;100.00;96929.50;5118010;28;20200;-89
2022/12/09 05:52:16;;;;;;;13.80;8.93;;;;;;;-3.05;100.00;96932.97;5117956;28;20202;-88
2022/12/09 05:54:44;;;;;;;13.37;9.30;;;;;;;-3.06;100.00;96930.44;5112639;28;20197;-89
2022/12/09 05:57:10;;;;;;;13.17;8.33;;;;;;;-3.05;100.00;96926.97;5111400;28;20239;-91
2022/12/09 05:59:37;;;;;;;16.10;10.50;;;;;;;-3.03;100.00;96936.34;5107612;28;20707;-89
2022/12/09 06:02:03;;;;;;;15.63;9.93;;;;;;;-3.02;100.00;96924.25;5107307;28;20203;-89
2022/12/09 06:04:30;;;;;;;16.83;10.57;;;;;;;-3.02;100.00;96914.78;5106669;28;20214;-90
2022/12/09 06:06:56;;;;;;;13.30;9.60;;;;;;;-3.00;100.00;96912.16;5105633;28;20215;-89
2022/12/09 06:09:23;;;;;;;14.80;9.73;;;;;;;-2.95;100.00;96920.59;5107412;28;20209;-89
2022/12/09 06:11:51;;;;;;;23.10;11.67;;;;;;;-3.00;100.00;96917.31;5103645;28;20608;-89
2022/12/09 06:14:17;;;;;;;14.30;9.73;;;;;;;-2.96;100.00;96919.72;5096643;28;20215;-89
2022/12/09 06:16:44;;;;;;;17.30;9.67;;;;;;;-2.93;100.00;96909.25;5096639;28;20208;-89
2022/12/09 06:19:11;;;;;;;13.77;9.53;;;;;;;-2.90;100.00;96911.75;5096383;28;20227;-88
2022/12/09 06:21:40;;;;;;;14.70;10.47;;;;;;;-2.90;100.00;96901.41;5097867;28;20219;-88
2022/12/09 06:24:07;;;;;;;16.90;10.67;;;;;;;-2.83;100.00;96907.19;5111242;28;20204;-88
2022/12/09 06:26:33;;;;;;;15.50;9.80;;;;;;;-2.81;100.00;96901.06;5106175;28;20206;-88
2022/12/09 06:29:01;;;;;;;14.83;10.27;;;;;;;-2.79;100.00;96906.19;5108218;28;20240;-88
2022/12/09 06:31:28;;;;;;;14.37;9.67;;;;;;;-2.79;100.00;96914.81;5110286;28;20192;-87
2022/12/09 06:33:55;;;;;;;17.80;11.30;;;;;;;-2.68;100.00;96907.50;5110942;28;20213;-87
2022/12/09 06:36:22;;;;;;;16.10;10.70;;;;;;;-2.61;100.00;96903.78;5111104;28;20251;-87
2022/12/09 06:38:48;;;;;;;15.10;9.53;;;;;;;-2.63;100.00;96894.41;5116391;28;20284;-87
2022/12/09 06:41:15;;;;;;;16.63;10.60;;;;;;;-2.72;100.00;96902.47;5111443;28;20224;-87
2022/12/09 06:43:42;;;;;;;15.83;10.27;;;;;;;-2.77;100.00;96907.81;5108952;28;20255;-87
2022/12/09 06:46:14;;;;;;;14.77;9.97;;;;;;;-2.74;100.00;96910.31;5117645;28;20194;-88
2022/12/09 06:48:41;;;;;;;16.23;10.20;;;;;;;-2.72;100.00;96905.06;5117366;28;20253;-89
2022/12/09 06:51:08;;;;;;;16.47;10.77;;;;;;;-2.71;100.00;96911.91;5117447;28;20216;-87
2022/12/09 06:53:34;;;;;;;18.43;10.20;;;;;;;-2.65;100.00;96909.09;5117092;28;20189;-87
2022/12/09 06:56:02;;;;;;;18.53;11.33;;;;;;;-2.66;100.00;96910.00;5114744;28;20204;-87
2022/12/09 06:58:28;;;;;;;18.53;11.10;;;;;;;-2.66;100.00;96910.88;5115524;28;20353;-87
2022/12/09 07:00:55;;;;;;;16.87;10.53;;;;;;;-2.50;100.00;96916.31;5115174;28;20241;-88
2022/12/09 07:03:22;;;;;;;16.80;10.93;;;;;;;-2.49;100.00;96905.06;5114303;28;20209;-87
2022/12/09 07:05:49;;;;;;;15.53;10.63;;;;;;;-2.41;100.00;96909.03;5114059;28;20234;-87
2022/12/09 07:08:15;;;;;;;16.13;10.23;;;;;;;-2.30;100.00;96909.50;5113985;28;20220;-87
2022/12/09 07:10:44;;;;;;;15.20;9.90;;;;;;;-2.29;100.00;96905.13;5091793;28;20210;-88
2022/12/09 07:13:11;;;;;;;15.80;11.53;;;;;;;-2.28;100.00;96907.66;5092054;28;20298;-88
2022/12/09 07:15:37;;;;;;;21.20;12.20;;;;;;;-2.26;100.00;96920.56;5092389;28;20204;-87
2022/12/09 07:18:04;;;;;;;18.27;11.90;;;;;;;-2.14;100.00;96910.56;5091786;28;20605;-87
2022/12/09 07:20:32;;;;;;;17.00;11.40;;;;;;;-2.06;100.00;96907.69;5091385;28;20233;-87
2022/12/09 07:22:59;;;;;;;20.63;12.37;;;;;;;-1.94;100.00;96907.19;5091725;28;20205;-87
2022/12/09 07:25:25;;;;;;;17.23;11.37;;;;;;;-1.87;100.00;96908.63;5094684;28;20209;-86
2022/12/09 07:27:52;;;;;;;22.53;13.07;;;;;;;-1.89;100.00;96894.91;5104290;28;20225;-87
2022/12/09 07:30:18;;;;;;;21.07;13.80;;;;;;;-1.87;100.00;96903.47;5096085;28;20206;-87
2022/12/09 07:32:45;;;;;;;15.87;11.33;;;;;;;-1.82;100.00;96906.72;5091292;28;20221;-88
2022/12/09 07:35:11;;;;;;;19.20;11.57;;;;;;;-1.78;100.00;96897.94;5091949;28;20213;-87
2022/12/09 07:37:39;;;;;;;15.03;11.40;;;;;;;-1.68;100.00;96894.03;5092065;28;20514;-87
2022/12/09 07:40:07;;;;;;;17.53;11.77;;;;;;;-1.78;100.00;96892.75;5091783;28;20229;-87
2022/12/09 07:42:35;;;;;;;16.43;11.30;;;;;;;-1.82;100.00;96886.00;5091864;28;20297;-87
2022/12/09 07:45:01;;;;;;;18.00;11.27;;;;;;;-1.67;100.00;96887.97;5091777;28;20214;-85
2022/12/09 07:47:28;;;;;;;17.40;11.30;;;;;;;-1.56;100.00;96883.16;5092066;28;20229;-85
2022/12/09 07:49:54;;;;;;;15.13;10.00;;;;;;;-1.53;100.00;96888.25;5091369;28;20213;-86
2022/12/09 07:52:21;;;;;;;15.43;10.37;;;;;;;-1.50;100.00;96883.78;5091757;28;20206;-86
2022/12/09 07:54:49;;;;;;;16.60;11.30;;;;;;;-1.48;100.00;96887.13;5091997;28;20213;-86
2022/12/09 07:57:15;;;;;;;16.47;10.57;;;;;;;-1.32;100.00;96887.31;5092051;28;20230;-86
2022/12/09 07:59:42;;;;;;;14.30;9.73;;;;;;;-1.19;100.00;96896.25;5091807;28;20207;-84
2022/12/09 08:02:09;;;;;;;16.07;9.33;;;;;;;-1.18;100.00;96890.19;5092079;28;20214;-87
2022/12/09 08:04:36;;;;;;;15.20;9.87;;;;;;;-1.14;100.00;96886.53;5091914;28;20581;-85
2022/12/09 08:07:02;;;;;;;15.53;10.20;;;;;;;-1.08;100.00;96888.88;5091545;28;20666;-89
2022/12/09 08:09:29;;;;;;;17.40;10.67;;;;;;;-1.04;100.00;96895.63;5095357;28;20219;-91
2022/12/09 08:11:56;;;;;;;15.17;10.03;;;;;;;-0.98;100.00;96890.16;5095625;28;20211;-89
2022/12/09 08:14:25;;;;;;;13.77;9.80;;;;;;;-0.93;100.00;96885.63;5095764;28;20233;-91
2022/12/09 08:16:51;;;;;;;17.70;11.40;;;;;;;-0.87;100.00;96882.75;5095457;28;20257;-93
2022/12/09 08:19:18;;;;;;;16.53;10.00;;;;;;;-0.85;100.00;96873.16;5095263;28;20464;-90
2022/12/09 08:21:45;;;;;;;14.67;9.83;;;;;;;-0.87;100.00;96880.16;5095473;28;20237;-92
2022/12/09 08:24:12;;;;;;;14.47;10.00;;;;;;;-0.84;100.00;96880.00;5095468;28;20584;-91
2022/12/09 08:26:39;;;;;;;18.00;10.90;;;;;;;-0.81;100.00;96885.09;5095202;28;20213;-91
2022/12/09 08:29:09;;;;;;;15.77;10.70;;;;;;;-0.79;100.00;96878.06;5094865;28;20287;-85
2022/12/09 08:31:36;;;;;;;17.33;11.47;;;;;;;-0.68;100.00;96875.84;5093902;28;20214;-91
2022/12/09 08:34:03;;;;;;;16.20;10.93;;;;;;;-0.55;100.00;96869.19;5094114;28;20207;-87
2022/12/09 08:36:31;;;;;;;17.90;11.60;;;;;;;-0.50;100.00;96870.63;5094096;28;20213;-85
2022/12/09 08:39:01;;;;;;;17.67;10.67;;;;;;;-0.45;100.00;96867.84;5093684;28;20231;-91
2022/12/09 08:41:35;;;;;;;15.73;10.57;;;;;;;-0.43;100.00;96858.25;5093923;28;20227;-90
2022/12/09 08:44:06;;;;;;;19.87;10.97;;;;;;;-0.38;100.00;96858.88;5092992;28;20205;-88
2022/12/09 08:46:36;;;;;;;16.10;10.33;;;;;;;-0.35;100.00;96849.19;5094796;28;20237;-89
2022/12/09 08:49:04;;;;;;;17.87;10.63;;;;;;;-0.36;100.00;96846.66;5094995;28;20236;-89
2022/12/09 08:51:31;;;;;;;17.27;11.50;;;;;;;-0.28;100.00;96851.41;5095346;28;20207;-89
2022/12/09 08:53:59;;;;;;;17.40;11.67;;;;;;;-0.22;100.00;96839.06;5094153;28;20198;-91
2022/12/09 08:56:26;;;;;;;15.03;11.13;;;;;;;-0.20;100.00;96830.28;5093847;28;20213;-92
2022/12/09 08:58:54;;;;;;;16.17;10.60;;;;;;;-0.26;100.00;96842.72;5093979;28;20241;-89
2022/12/09 09:01:23;;;;;;;17.47;11.77;;;;;;;-0.25;100.00;96821.03;5093025;28;20244;-90
2022/12/09 09:03:52;;;;;;;17.97;10.70;;;;;;;-0.23;100.00;96832.19;5093215;28;20209;-92
2022/12/09 09:06:19;;;;;;;15.90;10.83;;;;;;;-0.28;100.00;96824.63;5093161;28;20223;-86
2022/12/09 09:08:48;;;;;;;16.00;10.93;;;;;;;-0.30;100.00;96830.78;5092762;28;20241;-88
2022/12/09 09:11:17;;;;;;;17.07;10.87;;;;;;;-0.30;100.00;96834.25;5092951;28;20222;-84
2022/12/09 09:13:45;;;;;;;18.55;13.70;;;;;;;-0.28;100.00;96825.44;5092366;28;20433;-89
2022/12/09 09:16:13;;;;;;;20.00;12.40;;;;;;;-0.34;100.00;96835.28;5093227;28;20206;-86
2022/12/09 09:18:40;;;;;;;18.07;10.80;;;;;;;-0.32;100.00;96830.84;5092453;28;20230;-88
2022/12/09 09:21:11;;;;;;;19.77;12.60;;;;;;;-0.28;100.00;96820.25;5092384;28;20233;-88
2022/12/09 09:23:37;;;;;;;18.13;11.20;;;;;;;-0.31;100.00;96829.13;5092681;28;20194;-86
2022/12/09 09:26:04;;;;;;;17.50;10.70;;;;;;;-0.22;100.00;96828.66;5093123;28;20303;-89
2022/12/09 09:28:31;;;;;;;15.43;9.83;;;;;;;-0.19;100.00;96833.72;5093418;28;20237;-90
2022/12/09 09:30:59;;;;;;;17.97;11.03;;;;;;;-0.19;100.00;96838.91;5092998;28;20559;-87
2022/12/09 09:33:26;;;;;;;15.40;10.50;;;;;;;-0.14;100.00;96830.00;5093045;28;20218;-86
2022/12/09 09:35:55;;;;;;;16.50;10.20;;;;;;;-0.13;100.00;96829.06;5093070;28;20261;-88
2022/12/09 09:38:23;;;;;;;16.77;10.90;;;;;;;-0.08;100.00;96832.28;5092243;28;20235;-87
2022/12/09 09:40:50;;;;;;;19.37;11.77;;;;;;;0.06;100.00;96827.25;5092086;28;20328;-88
2022/12/09 09:43:19;;;;;;;22.50;12.13;;;;;;;0.16;100.00;96826.75;5091373;28;20591;-88
2022/12/09 09:45:48;;;;;;;17.07;11.10;;;;;;;0.24;100.00;96827.22;5092291;28;20214;-95
2022/12/09 09:48:18;;;;;;;19.50;11.47;;;;;;;0.28;100.00;96825.31;5092937;28;20233;-93
2022/12/09 09:50:50;;;;;;;14.93;10.77;;;;;;;0.32;100.00;96827.66;5093676;28;20229;-93
2022/12/09 09:53:23;;;;;;;18.77;11.67;;;;;;;0.36;100.00;96818.81;5093273;28;20203;-92
2022/12/09 09:55:56;;;;;;;17.20;11.37;;;;;;;0.41;100.00;96806.44;5093591;28;20209;-92
2022/12/09 09:58:27;;;;;;;17.13;11.73;;;;;;;0.50;100.00;96800.75;5093736;28;20698;-92
2022/12/09 10:01:02;;;;;;;16.60;10.93;;;;;;;0.52;100.00;96787.69;5092953;28;20610;-92
2022/12/09 10:03:40;;;;;;;16.30;11.73;;;;;;;0.62;100.00;96779.34;5092888;28;20409;-93
2022/12/09 10:06:20;;;;;;;17.20;11.70;;;;;;;0.60;100.00;96789.00;5094025;28;20210;-92
2022/12/09 10:08:55;;;;;;;16.47;11.17;;;;;;;0.56;100.00;96782.25;5092719;28;20238;-82
2022/12/09 10:11:29;;;;;;;19.47;12.27;;;;;;;0.61;100.00;96772.47;5092373;28;20234;-88
2022/12/09 10:14:03;;;;;;;16.10;11.43;;;;;;;0.63;100.00;96765.41;5091980;28;20210;-84
2022/12/09 10:16:39;;;;;;;16.30;11.60;;;;;;;0.63;100.00;96762.81;5092391;28;20207;-84
2022/12/09 10:19:15;;;;;;;16.57;10.83;;;;;;;0.68;100.00;96767.81;5091517;28;20230;-84
2022/12/09 10:21:43;;;;;;;20.27;11.70;;;;;;;0.73;100.00;96774.44;5092438;28;20231;-84
2022/12/09 10:24:22;;;;;;;15.47;10.77;;;;;;;0.80;100.00;96768.00;5092089;28;20213;-84
2022/12/09 10:26:57;;;;;;;16.63;10.40;;;;;;;0.89;100.00;96777.06;5092231;28;20211;-85
2022/12/09 10:29:43;;;;;;;13.93;9.90;;;;;;;0.97;100.00;96757.53;5092334;28;20217;-85
2022/12/09 10:32:16;;;;;;;19.37;11.93;;;;;;;1.01;100.00;96756.47;5091443;28;20213;-85
2022/12/09 10:34:42;;;;;;;16.60;11.30;;;;;;;1.01;100.00;96753.88;5092834;28;20202;-84
2022/12/09 10:37:24;;;;;;;16.63;10.67;;;;;;;0.99;100.00;96760.88;5094537;28;20332;-84
2022/12/09 10:39:55;;;;;;;15.53;10.40;;;;;;;1.06;100.00;96770.03;5093161;28;20229;-84
2022/12/09 10:45:11;;;;;;;18.27;10.37;;;;;;;1.04;100.00;96756.28;5091549;28;20209;-82
2022/12/09 10:47:38;;;;;;;17.27;11.90;;;;;;;1.04;100.00;96753.69;5091859;28;20263;-91
2022/12/09 10:50:06;;;;;;;16.27;11.00;;;;;;;1.02;100.00;96752.94;5091481;28;20297;-85
2022/12/09 10:52:44;;;;;;;16.67;13.15;;;;;;;1.19;100.00;96754.63;5088713;28;20507;-85
2022/12/09 10:55:23;;;;;;;18.77;12.17;;;;;;;1.25;100.00;96744.75;5089793;28;20220;-87
2022/12/09 10:57:51;;;;;;;15.43;10.40;;;;;;;1.36;100.00;96742.38;5090313;28;20264;-85
2022/12/09 11:00:22;;;;;;;17.23;11.37;;;;;;;1.44;100.00;96739.34;5090276;28;20282;-84
2022/12/09 11:02:51;;;;;;;16.43;11.40;;;;;;;1.48;100.00;96735.66;5089888;28;20753;-82
2022/12/09 11:05:23;;;;;;;15.53;10.30;;;;;;;1.48;100.00;96731.28;5091524;28;20210;-85
2022/12/09 11:07:50;;;;;;;16.37;9.97;;;;;;;1.49;100.00;96732.97;5091158;28;20241;-84
2022/12/09 11:10:19;;;;;;;16.23;10.47;;;;;;;1.47;100.00;96733.97;5091179;28;20208;-85
2022/12/09 11:12:49;;;;;;;15.30;10.93;;;;;;;1.47;100.00;96731.38;5091095;28;20203;-90
2022/12/09 11:15:29;;;;;;;19.20;12.43;;;;;;;1.43;100.00;96733.31;5091720;28;20214;-83
2022/12/09 11:17:59;;;;;;;18.53;13.27;;;;;;;1.54;100.00;96736.13;5090766;28;20528;-84
2022/12/09 11:20:28;;;;;;;17.80;12.27;;;;;;;1.52;100.00;96727.59;5090826;28;20206;-86
2022/12/09 11:23:00;;;;;;;19.30;12.37;;;;;;;1.49;100.00;96735.59;5090887;28;20227;-85